createdAt,value
2023-04-15T00:03:35.000Z,3.40
2023-04-15T00:07:40.978Z,3.70
2023-04-15T00:11:44.572Z,3.50
2023-04-15T00:15:48.269Z,4.18
2023-04-15T00:19:51.593Z,3.20
2023-04-15T00:23:56.536Z,3.58
2023-04-15T00:27:59.642Z,3.53
2023-04-15T00:32:03.061Z,3.28
2023-04-15T00:36:08.704Z,2.85
2023-04-15T00:40:15.018Z,2.72
2023-04-15T00:44:19.090Z,2.63
2023-04-15T00:48:23.153Z,2.80
2023-04-15T00:52:26.192Z,3.08
2023-04-15T00:56:32.322Z,2.50
2023-04-15T01:00:36.333Z,2.40
2023-04-15T01:04:39.834Z,2.30
2023-04-15T01:08:43.233Z,2.28
2023-04-15T01:12:48.184Z,3.20
2023-04-15T01:16:52.321Z,3.75
2023-04-15T01:20:55.559Z,4.32
2023-04-15T01:25:05.048Z,4.93
2023-04-15T01:29:10.795Z,5.20
2023-04-15T01:33:14.002Z,4.30
2023-04-15T01:37:17.194Z,4.35
2023-04-15T01:41:25.496Z,5.93
2023-04-15T01:45:31.275Z,6.88
2023-04-15T01:49:34.807Z,4.95
2023-04-15T01:53:38.151Z,5.70
2023-04-15T01:57:41.878Z,4.60
2023-04-15T02:01:46.811Z,4.70
2023-04-15T02:05:51.191Z,5.03
2023-04-15T02:09:54.656Z,3.67
2023-04-15T02:13:58.225Z,4.68
2023-04-15T02:18:03.016Z,4.03
2023-04-15T02:22:07.697Z,3.70
2023-04-15T02:26:11.479Z,3.90
2023-04-15T02:30:14.926Z,2.92
2023-04-15T02:34:21.180Z,3.35
2023-04-15T02:38:24.380Z,2.65
2023-04-15T02:42:29.187Z,2.30
2023-04-15T02:46:33.196Z,2.80
2023-04-15T02:50:39.916Z,2.80
2023-04-15T02:54:43.577Z,3.40
2023-04-15T02:58:47.420Z,3.25
2023-04-15T03:02:52.732Z,3.83
2023-04-15T03:06:58.806Z,2.50
2023-04-15T03:11:03.076Z,2.65
2023-04-15T03:15:07.278Z,2.60
2023-04-15T03:19:11.145Z,2.58
2023-04-15T03:23:16.481Z,2.03
2023-04-15T03:27:19.763Z,2.22
2023-04-15T03:31:23.155Z,2.17
2023-04-15T03:35:26.943Z,2.10
2023-04-15T03:39:32.026Z,2.45
2023-04-15T03:43:35.533Z,2.10
2023-04-15T03:47:39.557Z,2.10
2023-04-15T03:51:43.275Z,2.83
2023-04-15T03:55:48.535Z,2.45
2023-04-15T03:59:51.922Z,2.42
2023-04-15T04:03:55.646Z,2.45
2023-04-15T04:08:00.179Z,2.50
2023-04-15T04:12:05.575Z,2.53
2023-04-15T04:16:09.256Z,3.63
2023-04-15T04:20:13.036Z,3.22
2023-04-15T04:24:16.687Z,2.42
2023-04-15T04:28:22.540Z,2.63
2023-04-15T04:32:26.527Z,2.70
2023-04-15T04:36:30.026Z,3.03
2023-04-15T04:40:34.975Z,2.13
2023-04-15T04:44:42.417Z,3.25
2023-04-15T04:48:48.009Z,2.45
2023-04-15T04:52:52.050Z,2.30
2023-04-15T04:56:55.967Z,2.42
2023-04-15T05:01:04.679Z,2.28
2023-04-15T05:05:11.603Z,2.28
2023-04-15T05:09:16.727Z,1.90
2023-04-15T05:13:22.182Z,2.15
2023-04-15T05:17:28.557Z,1.80
2023-04-15T05:21:33.646Z,1.77
2023-04-15T05:25:38.546Z,1.98
2023-04-15T05:29:42.994Z,2.25
2023-04-15T05:33:48.497Z,2.28
2023-04-15T05:37:52.955Z,2.10
2023-04-15T05:41:58.133Z,2.80
2023-04-15T05:46:02.752Z,2.08
2023-04-15T05:50:09.329Z,2.85
2023-04-15T05:54:15.057Z,3.70
2023-04-15T05:58:19.503Z,2.80
2023-04-15T06:02:26.877Z,2.28
2023-04-15T06:06:35.235Z,2.65
2023-04-15T06:10:40.238Z,2.70
2023-04-15T06:14:44.899Z,2.35
2023-04-15T06:18:49.733Z,2.50
2023-04-15T06:22:57.420Z,2.72
2023-04-15T06:27:02.665Z,2.63
2023-04-15T06:31:06.966Z,2.50
2023-04-15T06:35:12.117Z,2.50
2023-04-15T06:39:17.760Z,2.17
2023-04-15T06:43:22.314Z,2.47
2023-04-15T06:47:26.511Z,2.70
2023-04-15T06:51:31.356Z,2.60
2023-04-15T06:55:37.033Z,2.78
2023-04-15T06:59:41.191Z,2.38
2023-04-15T07:03:45.856Z,2.10
2023-04-15T07:07:51.126Z,1.85
2023-04-15T07:11:57.421Z,2.28
2023-04-15T07:16:02.620Z,2.30
2023-04-15T07:20:07.886Z,2.08
2023-04-15T07:24:12.433Z,2.03
2023-04-15T07:28:18.414Z,1.95
2023-04-15T07:32:23.125Z,2.00
2023-04-15T07:36:28.650Z,1.90
2023-04-15T07:40:34.086Z,1.80
2023-04-15T07:44:39.878Z,1.40
2023-04-15T07:48:44.663Z,1.40
2023-04-15T07:52:49.653Z,1.88
2023-04-15T07:56:53.931Z,2.30
2023-04-15T08:00:59.996Z,1.90
2023-04-15T08:05:04.915Z,1.80
2023-04-15T08:09:10.459Z,1.90
2023-04-15T08:13:15.543Z,1.40
2023-04-15T08:17:21.254Z,1.30
2023-04-15T08:21:25.818Z,1.25
2023-04-15T08:25:30.165Z,1.45
2023-04-15T08:29:34.728Z,1.55
2023-04-15T08:33:39.305Z,1.17
2023-04-15T08:37:43.030Z,1.27
2023-04-15T08:41:49.810Z,1.20
2023-04-15T08:45:55.565Z,1.25
2023-04-15T08:50:02.159Z,1.40
2023-04-15T08:54:07.251Z,1.40
2023-04-15T08:58:12.123Z,1.33
2023-04-15T09:02:16.650Z,1.05
2023-04-15T09:06:23.314Z,1.20
2023-04-15T09:10:28.002Z,1.02
2023-04-15T09:14:32.872Z,1.27
2023-04-15T09:18:37.866Z,1.40
2023-04-15T09:22:42.963Z,1.20
2023-04-15T09:26:46.675Z,1.08
2023-04-15T09:30:53.753Z,1.23
2023-04-15T09:34:56.667Z,1.00
2023-04-15T09:39:01.812Z,1.30
2023-04-15T09:43:05.409Z,0.95
2023-04-15T09:47:08.332Z,0.90
2023-04-15T09:55:17.364Z,1.10
2023-04-15T09:59:21.775Z,0.90
2023-04-15T10:03:26.948Z,1.02
2023-04-15T10:07:31.201Z,0.98
2023-04-15T10:11:37.669Z,1.30
2023-04-15T10:15:40.801Z,1.10
2023-04-15T10:19:44.677Z,0.93
2023-04-15T10:23:49.286Z,1.15
2023-04-15T10:27:53.905Z,1.25
2023-04-15T10:31:56.992Z,0.90
2023-04-15T10:36:00.786Z,0.93
2023-04-15T10:40:25.660Z,0.95
2023-04-15T10:44:31.286Z,0.93
2023-04-15T10:48:34.432Z,1.20
2023-04-15T10:56:43.188Z,1.10
2023-04-15T11:00:52.729Z,0.90
2023-04-15T11:04:58.358Z,1.30
2023-04-15T11:09:06.298Z,1.10
2023-04-15T11:13:17.962Z,1.20
2023-04-15T11:17:30.314Z,1.05
2023-04-15T11:21:34.776Z,1.08
2023-04-15T11:25:38.468Z,0.90
2023-04-15T11:29:42.048Z,1.10
2023-04-15T11:38:01.564Z,1.10
2023-04-15T11:42:05.214Z,1.08
2023-04-15T11:46:08.639Z,0.93
2023-04-15T11:50:22.217Z,1.10
2023-04-15T11:54:27.317Z,1.42
2023-04-15T11:58:31.976Z,1.10
2023-04-15T12:02:39.306Z,1.13
2023-04-15T12:06:44.086Z,1.42
2023-04-15T12:10:46.948Z,1.27
2023-04-15T12:14:53.224Z,1.00
2023-04-15T12:18:57.067Z,1.33
2023-04-15T12:23:08.211Z,1.27
2023-04-15T12:27:14.614Z,1.48
2023-04-15T12:31:18.093Z,1.50
2023-04-15T12:35:21.890Z,1.35
2023-04-15T12:39:30.611Z,1.50
2023-04-15T12:43:34.297Z,1.30
2023-04-15T12:47:37.822Z,1.20
2023-04-15T12:51:41.132Z,1.13
2023-04-15T12:55:45.771Z,1.20
2023-04-15T12:59:49.265Z,1.30
2023-04-15T13:03:54.258Z,0.98
2023-04-15T13:07:57.595Z,1.08
2023-04-15T13:12:02.705Z,0.98
2023-04-15T13:16:06.692Z,1.20
2023-04-15T13:20:10.836Z,1.15
2023-04-15T13:24:14.234Z,0.82
2023-04-15T13:28:19.334Z,0.80
2023-04-15T13:32:23.000Z,0.60
2023-04-15T13:36:26.465Z,0.70
2023-04-15T13:40:29.758Z,0.80
2023-04-15T13:48:38.015Z,1.00
2023-04-15T13:52:41.264Z,0.98
2023-04-15T14:00:48.258Z,1.20
2023-04-15T14:04:51.542Z,1.20
2023-04-15T14:08:55.003Z,1.15
2023-04-15T14:12:58.056Z,1.25
2023-04-15T14:17:03.021Z,1.38
2023-04-15T14:21:07.530Z,1.40
2023-04-15T14:25:15.136Z,1.20
2023-04-15T14:29:26.711Z,1.58
2023-04-15T14:33:30.903Z,1.40
2023-04-15T14:37:34.195Z,1.63
2023-04-15T14:41:37.802Z,1.45
2023-04-15T14:45:43.707Z,1.40
2023-04-15T14:49:49.604Z,1.30
2023-04-15T14:53:52.927Z,1.27
2023-04-15T14:57:55.954Z,1.00
2023-04-15T15:01:59.054Z,1.08
2023-04-15T15:10:07.660Z,1.20
2023-04-15T15:14:11.856Z,1.23
2023-04-15T15:18:15.643Z,0.90
2023-04-15T15:22:21.453Z,1.02
2023-04-15T15:26:24.565Z,1.00
2023-04-15T15:30:27.277Z,1.10
2023-04-15T15:34:30.622Z,1.20
2023-04-15T15:42:38.945Z,1.60
2023-04-15T15:46:42.106Z,1.58
2023-04-15T15:50:46.011Z,1.70
2023-04-15T15:54:50.711Z,1.70
2023-04-15T15:58:54.335Z,1.80
2023-04-15T16:07:04.480Z,2.63
2023-04-15T16:11:09.146Z,3.22
2023-04-15T16:15:13.187Z,2.90
2023-04-15T16:19:16.570Z,3.30
2023-04-15T16:23:21.664Z,3.60
2023-04-15T16:27:26.064Z,3.10
2023-04-15T16:31:29.171Z,3.42
2023-04-15T16:35:34.457Z,3.00
2023-04-15T16:39:37.956Z,3.10
2023-04-15T16:43:42.952Z,2.50
2023-04-15T16:47:45.855Z,3.40
2023-04-15T16:51:49.115Z,2.95
2023-04-15T16:55:52.504Z,2.80
2023-04-15T16:59:56.980Z,2.70
2023-04-15T17:04:00.259Z,2.67
2023-04-15T17:08:03.318Z,2.13
2023-04-15T17:12:06.475Z,2.40
2023-04-15T17:16:11.274Z,2.50
2023-04-15T17:20:14.319Z,2.50
2023-04-15T17:24:17.146Z,2.45
2023-04-15T17:28:20.248Z,2.42
2023-04-15T17:32:24.924Z,1.80
2023-04-15T17:36:27.945Z,1.85
2023-04-15T17:40:30.750Z,1.70
2023-04-15T17:44:33.725Z,1.90
2023-04-15T17:48:38.237Z,1.38
2023-04-15T17:52:41.701Z,1.40
2023-04-15T17:56:44.449Z,1.60
2023-04-15T18:00:47.456Z,1.20
2023-04-15T18:04:51.994Z,1.02
2023-04-15T18:08:55.144Z,1.13
2023-04-15T18:12:58.128Z,2.35
2023-04-15T18:17:01.128Z,1.20
2023-04-15T18:21:06.188Z,1.40
2023-04-15T18:25:10.237Z,1.40
2023-04-15T18:29:13.350Z,1.20
2023-04-15T18:33:16.602Z,1.35
2023-04-15T18:37:20.949Z,1.30
2023-04-15T18:41:25.286Z,1.50
2023-04-15T18:45:28.129Z,1.40
2023-04-15T18:49:32.364Z,1.40
2023-04-15T18:53:36.909Z,1.33
2023-04-15T18:57:42.840Z,1.50
2023-04-15T19:01:47.460Z,1.58
2023-04-15T19:05:50.921Z,1.50
2023-04-15T19:09:55.803Z,1.70
2023-04-15T19:13:58.905Z,1.90
2023-04-15T19:18:02.266Z,1.65
2023-04-15T19:22:06.161Z,1.60
2023-04-15T19:26:10.610Z,1.50
2023-04-15T19:30:14.113Z,1.88
2023-04-15T19:34:17.539Z,1.83
2023-04-15T19:38:20.632Z,1.63
2023-04-15T19:42:25.340Z,2.00
2023-04-15T19:46:28.699Z,1.65
2023-04-15T19:50:33.405Z,1.70
2023-04-15T19:54:36.729Z,1.90
2023-04-15T19:58:41.505Z,2.00
2023-04-15T20:02:44.945Z,1.90
2023-04-15T20:06:48.109Z,1.70
2023-04-15T20:10:51.466Z,1.85
2023-04-15T20:14:56.233Z,1.70
2023-04-15T20:19:02.105Z,2.20
2023-04-15T20:23:05.235Z,1.95
2023-04-15T20:27:08.378Z,1.90
2023-04-15T20:31:13.412Z,2.20
2023-04-15T20:35:16.636Z,1.98
2023-04-15T20:39:19.952Z,2.13
2023-04-15T20:43:22.900Z,2.20
2023-04-15T20:47:27.790Z,2.17
2023-04-15T20:51:37.331Z,2.50
2023-04-15T20:56:00.309Z,2.45
2023-04-15T21:00:04.209Z,2.53
2023-04-15T21:04:09.190Z,2.03
2023-04-15T21:08:13.041Z,2.15
2023-04-15T21:12:16.583Z,2.40
2023-04-15T21:16:19.731Z,2.40
2023-04-15T21:20:24.605Z,2.35
2023-04-15T21:24:27.721Z,2.40
2023-04-15T21:28:31.000Z,2.30
2023-04-15T21:32:34.814Z,2.50
2023-04-15T21:36:39.966Z,2.60
2023-04-15T21:40:43.158Z,2.47
2023-04-15T21:44:46.533Z,2.25
2023-04-15T21:48:49.756Z,2.00
2023-04-15T21:52:54.327Z,2.08
2023-04-15T21:56:57.451Z,1.80
2023-04-15T22:01:00.784Z,1.90
2023-04-15T22:05:04.035Z,1.95
2023-04-15T22:09:08.698Z,1.90
2023-04-15T22:13:13.024Z,2.03
2023-04-15T22:17:16.051Z,2.30
2023-04-15T22:21:22.116Z,1.92
2023-04-15T22:25:27.283Z,2.08
2023-04-15T22:29:30.614Z,1.80
2023-04-15T22:33:33.948Z,2.00
2023-04-15T22:37:36.920Z,1.60
2023-04-15T22:41:41.583Z,2.10
2023-04-15T22:45:50.303Z,2.70
2023-04-15T22:49:53.405Z,2.30
2023-04-15T22:53:56.792Z,2.17
2023-04-15T22:58:01.294Z,2.10
2023-04-15T23:02:04.469Z,1.80
2023-04-15T23:06:07.742Z,2.10
2023-04-15T23:10:11.408Z,2.08
2023-04-15T23:14:19.191Z,1.85
2023-04-15T23:18:22.591Z,1.90
2023-04-15T23:22:25.532Z,1.88
2023-04-15T23:26:28.813Z,1.80
2023-04-15T23:30:33.504Z,1.90
2023-04-15T23:34:36.965Z,1.60
2023-04-15T23:38:43.020Z,1.50
2023-04-15T23:42:46.611Z,1.80
2023-04-15T23:46:51.835Z,1.50
2023-04-15T23:50:54.878Z,1.35
